createdAt,value
2017-10-19T00:00:54.236Z,81.32
2017-10-19T00:02:06.494Z,81.23
2017-10-19T00:03:18.751Z,80.65
2017-10-19T00:04:31.323Z,80.94
2017-10-19T00:05:43.595Z,81.32
2017-10-19T00:06:56.165Z,81.13
2017-10-19T00:08:09.035Z,81.51
2017-10-19T00:09:21.280Z,81.7
2017-10-19T00:10:33.227Z,81.23
2017-10-19T00:11:45.796Z,81.23
2017-10-19T00:12:57.718Z,81.6
2017-10-19T00:14:09.992Z,80.75
2017-10-19T00:15:22.550Z,81.03
2017-10-19T00:16:34.805Z,80.65
2017-10-19T00:17:47.400Z,79.7
2017-10-19T00:19:00.246Z,80.08
2017-10-19T00:20:12.815Z,80.46
2017-10-19T00:21:25.388Z,80.46
2017-10-19T00:22:37.957Z,80.08
2017-10-19T00:23:50.228Z,80.27
2017-10-19T00:25:02.798Z,80.36
2017-10-19T00:26:15.370Z,79.99
2017-10-19T00:27:27.940Z,79.22
2017-10-19T00:28:40.186Z,79.7
2017-10-19T00:29:52.431Z,79.7
2017-10-19T00:31:04.703Z,79.7
2017-10-19T00:32:16.948Z,80.18
2017-10-19T00:33:29.521Z,79.7
2017-10-19T00:34:42.088Z,78.75
2017-10-19T00:35:54.362Z,79.22
2017-10-19T00:37:06.930Z,79.13
2017-10-19T00:38:19.501Z,79.32
2017-10-19T00:39:32.072Z,79.32
2017-10-19T00:40:43.993Z,79.6
2017-10-19T00:41:56.563Z,79.51
2017-10-19T00:43:09.162Z,79.7
2017-10-19T00:44:21.728Z,79.03
2017-10-19T00:45:33.975Z,79.03
2017-10-19T00:46:46.575Z,79.41
2017-10-19T00:47:59.116Z,79.32
2017-10-19T00:49:11.687Z,79.32
2017-10-19T00:50:24.231Z,79.51
2017-10-19T00:51:37.104Z,79.8
2017-10-19T00:52:49.679Z,79.57
2017-10-19T00:54:01.594Z,80.08
2017-10-19T00:55:14.166Z,79.28
2017-10-19T00:56:26.103Z,79.75
2017-10-19T00:57:38.357Z,80.04
2017-10-19T00:58:50.277Z,80.08
2017-10-19T01:00:02.853Z,80.08
2017-10-19T01:01:15.418Z,79.28
2017-10-19T01:02:27.665Z,79.47
2017-10-19T01:03:39.885Z,79.19
2017-10-19T01:04:52.456Z,79.6
2017-10-19T01:06:04.699Z,79.85
2017-10-19T01:07:16.622Z,79.94
2017-10-19T01:08:29.192Z,80.42
2017-10-19T01:09:41.762Z,79.09
2017-10-19T01:10:54.366Z,78.9
2017-10-19T01:12:06.928Z,79.47
2017-10-19T01:13:19.200Z,79.38
2017-10-19T01:14:31.446Z,79.47
2017-10-19T01:15:43.991Z,79.75
2017-10-19T01:16:56.254Z,80.13
2017-10-19T01:18:08.531Z,79.85
2017-10-19T01:19:21.106Z,79.94
2017-10-19T01:20:33.351Z,79.28
2017-10-19T01:21:45.594Z,79.75
2017-10-19T01:22:57.840Z,79.85
2017-10-19T01:24:10.715Z,80.23
2017-10-19T01:25:23.280Z,80.23
2017-10-19T01:26:35.527Z,79.75
2017-10-19T01:27:48.096Z,80.04
2017-10-19T01:29:00.368Z,79.85
2017-10-19T01:30:12.938Z,80.23
2017-10-19T01:31:25.227Z,79.75
2017-10-19T01:32:37.801Z,80.04
2017-10-19T01:33:50.351Z,80.42
2017-10-19T01:35:03.230Z,80.04
2017-10-19T01:36:15.792Z,79.47
2017-10-19T01:37:28.386Z,79.47
2017-10-19T01:38:40.308Z,79.57
2017-10-19T01:39:52.554Z,79.38
2017-10-19T01:41:04.799Z,79.85
2017-10-19T01:42:17.045Z,79.19
2017-10-19T01:43:29.618Z,79.57
2017-10-19T01:44:41.862Z,79.28
2017-10-19T01:45:54.432Z,79.57
2017-10-19T01:47:06.678Z,78.99
2017-10-19T01:48:19.223Z,78.42
2017-10-19T01:49:31.800Z,78.9
2017-10-19T01:50:44.363Z,78.52
2017-10-19T01:51:56.935Z,79.19
2017-10-19T01:53:09.180Z,79.47
2017-10-19T01:54:21.776Z,79.47
2017-10-19T01:55:33.064Z,79.47
2017-10-19T01:56:45.618Z,79.38
2017-10-19T01:57:57.864Z,79.85
2017-10-19T01:59:10.433Z,79.19
2017-10-19T02:00:23.006Z,79.38
2017-10-19T02:01:35.225Z,78.99
2017-10-19T02:02:47.797Z,78.9
2017-10-19T02:04:00.042Z,79.19
2017-10-19T02:05:12.641Z,79.28
2017-10-19T02:06:25.209Z,79.19
2017-10-19T02:07:37.779Z,79.57
2017-10-19T02:08:50.017Z,78.8
2017-10-19T02:10:02.571Z,78.86
2017-10-19T02:11:15.140Z,78.33
2017-10-19T02:12:27.386Z,78.42
2017-10-19T02:13:39.311Z,78.57
2017-10-19T02:14:51.902Z,79.24
2017-10-19T02:16:04.147Z,78.96
2017-10-19T02:17:16.396Z,78.57
2017-10-19T02:18:29.269Z,79.33
2017-10-19T02:20:13.307Z,79.33
2017-10-19T02:21:25.879Z,78.86
2017-10-19T02:22:38.449Z,79.05
2017-10-19T02:23:51.269Z,79.43
2017-10-19T02:25:03.841Z,78.96
2017-10-19T02:26:16.436Z,79.05
2017-10-19T02:27:29.007Z,78.67
2017-10-19T02:28:41.569Z,78.96
2017-10-19T02:29:54.123Z,79.14
2017-10-19T02:31:06.398Z,79.43
2017-10-19T02:32:18.964Z,79.43
2017-10-19T02:33:31.210Z,79.43
2017-10-19T02:34:43.459Z,78.86
2017-10-19T02:35:55.719Z,78.77
2017-10-19T02:37:07.673Z,79.14
2017-10-19T02:38:19.917Z,78.96
2017-10-19T02:39:32.163Z,79.24
2017-10-19T02:40:44.434Z,79.33
2017-10-19T02:41:57.004Z,78.96
2017-10-19T02:43:09.250Z,79.33
2017-10-19T02:44:21.826Z,79.43
2017-10-19T02:45:34.397Z,78.86
2017-10-19T02:46:46.665Z,78.96
2017-10-19T02:47:59.232Z,79.14
2017-10-19T02:49:11.805Z,79.24
2017-10-19T02:50:24.374Z,79.43
2017-10-19T02:51:36.620Z,79.24
2017-10-19T02:52:49.165Z,78.96
2017-10-19T02:54:01.413Z,79.33
2017-10-19T02:55:13.659Z,79.24
2017-10-19T02:56:26.156Z,79.33
2017-10-19T02:57:38.100Z,79.33
2017-10-19T02:58:50.668Z,79.62
2017-10-19T03:00:03.243Z,79.05
2017-10-19T03:01:15.834Z,78.57
2017-10-19T03:02:28.710Z,79.05
2017-10-19T03:03:40.955Z,79.33
2017-10-19T03:04:53.522Z,78.29
2017-10-19T03:06:05.117Z,78.77
2017-10-19T03:07:17.038Z,78.67
2017-10-19T03:08:29.609Z,79.24
2017-10-19T03:09:42.180Z,78.86
2017-10-19T03:10:54.100Z,78.67
2017-10-19T03:12:06.671Z,78.38
2017-10-19T03:13:19.247Z,78.38
2017-10-19T03:14:31.489Z,77.43
2017-10-19T03:15:44.057Z,77.24
2017-10-19T03:16:56.628Z,77.72
2017-10-19T03:18:08.874Z,78.29
2017-10-19T03:19:21.120Z,78.96
2017-10-19T03:20:33.691Z,78.86
2017-10-19T03:21:46.264Z,79.52
2017-10-19T03:22:58.857Z,79.14
2017-10-19T03:24:11.728Z,79.24
2017-10-19T03:25:23.673Z,79.72
2017-10-19T03:26:35.917Z,79.24
2017-10-19T03:27:47.841Z,79.49
2017-10-19T03:29:00.660Z,79.68
2017-10-19T03:30:13.233Z,78.91
2017-10-19T03:31:25.801Z,79.43
2017-10-19T03:32:37.724Z,79.2
2017-10-19T03:33:49.967Z,78.72
2017-10-19T03:35:02.556Z,78.86
2017-10-19T03:36:15.109Z,78.72
2017-10-19T03:37:27.354Z,79.11
2017-10-19T03:38:39.600Z,79.39
2017-10-19T03:39:52.170Z,79.96
2017-10-19T03:41:04.420Z,79.14
2017-10-19T03:42:16.991Z,78.82
2017-10-19T03:43:29.582Z,79.2
2017-10-19T03:44:42.153Z,79.68
2017-10-19T03:45:54.099Z,80.05
2017-10-19T03:47:06.670Z,79.58
2017-10-19T03:48:18.889Z,79.39
2017-10-19T03:49:30.811Z,79.11
2017-10-19T03:50:43.380Z,79.49
2017-10-19T03:51:55.626Z,78.91
2017-10-19T03:53:07.564Z,78.16
2017-10-19T03:54:19.794Z,77.87
2017-10-19T03:55:32.063Z,77.01
2017-10-19T03:56:44.641Z,77.87
2017-10-19T03:57:57.206Z,78.25
2017-10-19T03:59:09.451Z,78.34
2017-10-19T04:00:21.714Z,77.58
2017-10-19T04:01:34.524Z,76.63
2017-10-19T04:02:46.763Z,76.82
2017-10-19T04:03:59.334Z,77.01
2017-10-19T04:05:11.296Z,77.49
2017-10-19T04:06:23.224Z,77.39
2017-10-19T04:07:35.469Z,77.39
2017-10-19T04:08:47.716Z,77.58
2017-10-19T04:10:00.288Z,78.16
2017-10-19T04:11:12.858Z,77.77
2017-10-19T04:12:25.114Z,77.97
2017-10-19T04:13:37.373Z,78.25
2017-10-19T04:14:49.619Z,78.25
2017-10-19T04:16:01.866Z,78.25
2017-10-19T04:17:14.111Z,78.44
2017-10-19T04:18:26.364Z,78.34
2017-10-19T04:19:38.277Z,78.44
2017-10-19T04:20:50.854Z,78.06
2017-10-19T04:22:03.418Z,76.92
2017-10-19T04:23:15.664Z,76.92
2017-10-19T04:24:28.233Z,77.3
2017-10-19T04:25:40.157Z,77.11
2017-10-19T04:26:52.426Z,76.92
2017-10-19T04:28:04.671Z,75.96
2017-10-19T04:29:17.243Z,76.44
2017-10-19T04:30:29.813Z,76.73
2017-10-19T04:31:42.383Z,76.54
2017-10-19T04:32:54.956Z,77.11
2017-10-19T04:34:07.200Z,77.01
2017-10-19T04:35:19.444Z,77.11
2017-10-19T04:36:32.017Z,76.63
2017-10-19T04:37:44.287Z,76.06
2017-10-19T04:38:56.232Z,75.49
2017-10-19T04:40:08.804Z,75.49
2017-10-19T04:41:21.366Z,75.59
2017-10-19T04:42:33.945Z,76.06
2017-10-19T04:43:46.515Z,76.06
2017-10-19T04:44:58.787Z,76.16
2017-10-19T04:46:10.416Z,76.35
2017-10-19T04:47:22.652Z,75.49
2017-10-19T04:48:35.223Z,75.59
2017-10-19T04:49:47.792Z,75.3
2017-10-19T04:51:00.365Z,75.02
2017-10-19T04:52:12.611Z,74.44
2017-10-19T04:53:24.880Z,74.63
2017-10-19T04:54:37.443Z,74.35
2017-10-19T04:55:49.372Z,74.63
2017-10-19T04:57:01.943Z,74.44
2017-10-19T04:58:14.515Z,74.73
2017-10-19T04:59:26.457Z,75.11
2017-10-19T05:00:38.403Z,74.92
2017-10-19T05:01:50.975Z,75.11
2017-10-19T05:03:03.219Z,74.82
2017-10-19T05:04:15.467Z,75.02
2017-10-19T05:05:28.038Z,75.02
2017-10-19T05:06:40.310Z,74.82
2017-10-19T05:07:52.854Z,74.73
2017-10-19T05:09:04.791Z,74.92
2017-10-19T05:10:17.353Z,74.92
2017-10-19T05:11:29.914Z,74.44
2017-10-19T05:12:42.460Z,73.97
2017-10-19T05:13:55.031Z,74.07
2017-10-19T05:15:07.601Z,73.88
2017-10-19T05:16:20.172Z,73.69
2017-10-19T05:17:32.993Z,74.26
2017-10-19T05:18:45.244Z,73.88
2017-10-19T05:19:57.485Z,73.88
2017-10-19T05:21:09.722Z,73.78
2017-10-19T05:22:21.680Z,73.4
2017-10-19T05:23:33.921Z,73.4
2017-10-19T05:24:46.169Z,73.21
2017-10-19T05:25:58.413Z,73.3
2017-10-19T05:27:10.337Z,73.11
2017-10-19T05:28:22.903Z,72.45
2017-10-19T05:29:35.473Z,72.01
2017-10-19T05:30:48.045Z,72.07
2017-10-19T05:32:00.291Z,70.77
2017-10-19T05:33:12.861Z,70.39
2017-10-19T05:34:25.432Z,69.82
2017-10-19T05:35:37.720Z,69.92
2017-10-19T05:36:50.273Z,68.96
2017-10-19T05:38:02.869Z,68.87
2017-10-19T05:39:15.382Z,69.06
2017-10-19T05:40:27.664Z,68.01
2017-10-19T05:41:40.232Z,67.82
2017-10-19T05:42:52.802Z,67.25
2017-10-19T05:44:05.048Z,66.97
2017-10-19T05:45:17.618Z,66.11
2017-10-19T05:46:29.864Z,66.3
2017-10-19T05:47:42.460Z,65.92
2017-10-19T05:48:54.705Z,66.33
2017-10-19T05:50:06.951Z,65.58
2017-10-19T05:51:19.197Z,65.58
2017-10-19T05:52:31.443Z,65.77
2017-10-19T05:53:43.688Z,65.58
2017-10-19T05:54:55.933Z,64.9
2017-10-19T05:56:08.507Z,64.9
2017-10-19T05:57:20.766Z,65.1
2017-10-19T05:58:33.322Z,64.9
2017-10-19T05:59:45.891Z,64.9
2017-10-19T06:00:58.463Z,64.9
2017-10-19T06:02:10.706Z,64.43
2017-10-19T06:03:22.327Z,64.43
2017-10-19T06:04:34.600Z,64.9
2017-10-19T06:05:47.169Z,64.43
2017-10-19T06:06:59.741Z,64.43
2017-10-19T06:08:11.984Z,64.53
2017-10-19T06:09:24.231Z,64.24
2017-10-19T06:10:36.826Z,64.28
2017-10-19T06:11:49.072Z,64.43
2017-10-19T06:13:01.337Z,64.24
2017-10-19T06:14:13.914Z,64.37
2017-10-19T06:15:26.483Z,63.99
2017-10-19T06:16:38.747Z,63.7
2017-10-19T06:17:50.374Z,64.18
2017-10-19T06:19:02.946Z,63.8
2017-10-19T06:20:15.209Z,63.99
2017-10-19T06:21:27.788Z,64.18
2017-10-19T06:22:40.358Z,63.89
2017-10-19T06:23:52.621Z,63.89
2017-10-19T06:25:05.176Z,64.47
2017-10-19T06:26:17.419Z,64.47
2017-10-19T06:27:29.991Z,63.8
2017-10-19T06:28:42.561Z,64.47
2017-10-19T06:29:54.483Z,64.37
2017-10-19T06:31:06.404Z,64.37
2017-10-19T06:32:18.648Z,64.56
2017-10-19T06:33:30.595Z,64.37
2017-10-19T06:34:43.165Z,64.65
2017-10-19T06:35:55.088Z,64.56
2017-10-19T06:37:07.331Z,64.65
2017-10-19T06:38:19.901Z,64.75
2017-10-19T06:39:32.450Z,64.37
2017-10-19T06:40:44.718Z,64.59
2017-10-19T06:41:56.980Z,65.55
2017-10-19T06:43:08.911Z,65.55
2017-10-19T06:44:21.481Z,66.21
2017-10-19T06:45:34.050Z,66.31
2017-10-19T06:46:46.620Z,66.5
2017-10-19T06:47:59.191Z,67.35
2017-10-19T06:49:11.764Z,67.26
2017-10-19T06:50:24.009Z,67.64
2017-10-19T06:51:36.607Z,68.18
2017-10-19T06:52:49.175Z,67.45
2017-10-19T06:54:01.420Z,67.64
2017-10-19T06:55:13.994Z,68.3
2017-10-19T06:56:26.278Z,68.59
2017-10-19T06:57:38.858Z,68.4
2017-10-19T06:58:51.426Z,69.74
2017-10-19T07:00:03.699Z,70.31
2017-10-19T07:01:15.636Z,70.59
2017-10-19T07:02:27.890Z,70.78
2017-10-19T07:03:39.827Z,70.59
2017-10-19T07:04:51.431Z,70.78
2017-10-19T07:06:04.001Z,71.64
2017-10-19T07:07:16.252Z,72.5
2017-10-19T07:08:28.843Z,72.02
2017-10-19T07:09:41.417Z,71.26
2017-10-19T07:10:53.959Z,71.73
2017-10-19T07:12:06.530Z,71.17
2017-10-19T07:13:19.101Z,70.59
2017-10-19T07:14:31.347Z,71.07
2017-10-19T07:15:43.890Z,71.07
2017-10-19T07:16:55.512Z,70.59
2017-10-19T07:18:08.109Z,70.88
2017-10-19T07:19:20.681Z,70.97
2017-10-19T07:20:33.250Z,72.63
2017-10-19T07:21:45.495Z,72.34
2017-10-19T07:22:58.066Z,73.39
2017-10-19T07:24:10.311Z,72.82
2017-10-19T07:25:22.882Z,72.53
2017-10-19T07:26:35.128Z,72.34
2017-10-19T07:27:47.374Z,73.21
2017-10-19T07:28:59.943Z,73.3
2017-10-19T07:30:11.907Z,74.54
2017-10-19T07:31:24.502Z,73.58
2017-10-19T07:32:37.057Z,73.87
2017-10-19T07:33:49.628Z,74.06
2017-10-19T07:35:02.198Z,73.3
2017-10-19T07:36:13.818Z,74.16
2017-10-19T07:37:26.068Z,78.06
2017-10-19T07:38:38.652Z,78.54
2017-10-19T07:39:50.922Z,77.2
2017-10-19T07:41:03.476Z,76.35
2017-10-19T07:42:15.722Z,75.4
2017-10-19T07:43:28.293Z,76.16
2017-10-19T07:44:40.863Z,78.64
2017-10-19T07:45:53.450Z,80.35
2017-10-19T07:47:05.379Z,79.02
2017-10-19T07:48:17.624Z,77.87
2017-10-19T07:49:29.544Z,77.2
2017-10-19T07:50:41.158Z,78.1
2017-10-19T07:51:52.787Z,78.1
2017-10-19T07:53:05.358Z,77.53
2017-10-19T07:54:17.303Z,76.96
2017-10-19T07:55:29.873Z,77.62
2017-10-19T07:56:42.118Z,76.86
2017-10-19T07:57:54.689Z,77.62
2017-10-19T07:59:07.260Z,77.15
2017-10-19T08:00:19.202Z,77.62
2017-10-19T08:01:31.476Z,78.3
2017-10-19T08:02:43.724Z,77.44
2017-10-19T08:03:56.292Z,78.1
2017-10-19T08:05:08.864Z,77.53
2017-10-19T08:06:20.484Z,77.62
2017-10-19T08:07:32.430Z,77.25
2017-10-19T08:08:45.002Z,77.47
2017-10-19T08:09:57.246Z,78.96
2017-10-19T08:11:09.545Z,80.53
2017-10-19T08:12:22.114Z,85.49
2017-10-19T08:13:34.682Z,87.68
2017-10-19T08:14:47.253Z,85.3
2017-10-19T08:15:59.499Z,85.54
2017-10-19T08:17:11.767Z,86.06
2017-10-19T08:18:24.341Z,84.16
2017-10-19T08:19:36.910Z,83.01
2017-10-19T08:20:48.857Z,83.58
2017-10-19T08:22:01.103Z,83.77
2017-10-19T08:23:13.365Z,85.21
2017-10-19T08:24:25.961Z,86.73
2017-10-19T08:25:37.565Z,88.64
2017-10-19T08:26:49.809Z,88.83
2017-10-19T08:28:02.383Z,89.31
2017-10-19T08:29:14.661Z,88.54
2017-10-19T08:30:27.222Z,87.78
2017-10-19T08:31:39.468Z,87.02
2017-10-19T08:32:51.728Z,86.63
2017-10-19T08:34:04.301Z,86.63
2017-10-19T08:35:16.880Z,88.26
2017-10-19T08:36:29.526Z,87.21
2017-10-19T08:37:41.788Z,86.54
2017-10-19T08:38:54.341Z,86.16
2017-10-19T08:40:06.913Z,87.4
2017-10-19T08:41:18.853Z,88.92
2017-10-19T08:42:31.121Z,89.78
2017-10-19T08:43:43.699Z,90.69
2017-10-19T08:44:55.950Z,90.69
2017-10-19T08:46:07.890Z,89.92
2017-10-19T08:47:20.472Z,91.26
2017-10-19T08:48:32.428Z,90.69
2017-10-19T08:49:45.007Z,90.5
2017-10-19T08:50:57.572Z,88.97
2017-10-19T08:52:09.518Z,88.49
2017-10-19T08:53:21.781Z,87.92
2017-10-19T08:54:34.335Z,88.11
2017-10-19T08:55:46.905Z,89.83
2017-10-19T08:56:59.151Z,90.02
2017-10-19T08:58:11.076Z,90.5
2017-10-19T08:59:23.646Z,91.16
2017-10-19T09:00:36.213Z,91.55
2017-10-19T09:01:48.463Z,90.92
2017-10-19T09:03:01.029Z,94.07
2017-10-19T09:04:13.275Z,95.12
2017-10-19T09:05:25.571Z,94.55
2017-10-19T09:06:38.159Z,93.31
2017-10-19T09:07:50.729Z,93.6
2017-10-19T09:09:03.008Z,94.46
2017-10-19T09:10:15.578Z,94.65
2017-10-19T09:11:28.174Z,94.36
2017-10-19T09:12:40.119Z,95.51
2017-10-19T09:13:52.742Z,95.22
2017-10-19T09:15:05.004Z,94.46
2017-10-19T09:16:17.583Z,97.52
2017-10-19T09:17:29.845Z,96.17
2017-10-19T09:18:42.098Z,96.94
2017-10-19T09:19:54.667Z,98.37
2017-10-19T09:21:06.589Z,98.28
2017-10-19T09:22:18.184Z,98.08
2017-10-19T09:23:30.437Z,97.52
2017-10-19T09:24:42.370Z,97.52
2017-10-19T09:25:54.297Z,97.23
2017-10-19T09:27:06.549Z,97.42
2017-10-19T09:28:19.112Z,98.18
2017-10-19T09:29:31.677Z,98.18
2017-10-19T09:30:43.921Z,98.9
2017-10-19T09:31:56.477Z,98.23
2017-10-19T09:33:08.726Z,98.8
2017-10-19T09:34:20.668Z,98.42
2017-10-19T09:35:33.236Z,98.8
2017-10-19T09:36:45.807Z,99.66
2017-10-19T09:37:58.302Z,99.99
2017-10-19T09:39:10.554Z,99.99
2017-10-19T09:40:22.794Z,99.95
2017-10-19T09:41:35.040Z,99.99
2017-10-19T09:42:47.609Z,99.99
2017-10-19T09:43:59.886Z,99.76
2017-10-19T09:45:11.506Z,99.28
2017-10-19T09:46:24.075Z,99.66
2017-10-19T09:47:36.650Z,99.99
2017-10-19T09:48:48.915Z,99.99
2017-10-19T09:50:01.484Z,99.99
2017-10-19T09:51:14.056Z,99.99
2017-10-19T09:52:25.978Z,99.99
2017-10-19T09:53:38.239Z,99.99
2017-10-19T09:54:50.493Z,99.99
2017-10-19T09:56:03.081Z,99.99
2017-10-19T09:57:15.334Z,99.99
2017-10-19T09:58:27.597Z,99.99
2017-10-19T09:59:40.174Z,99.99
2017-10-19T10:00:52.746Z,99.99
2017-10-19T10:02:05.017Z,99.99
2017-10-19T10:03:17.287Z,99.99
2017-10-19T10:04:29.533Z,99.99
2017-10-19T10:05:41.779Z,99.99
2017-10-19T10:06:54.324Z,99.99
2017-10-19T10:08:06.610Z,99.99
2017-10-19T10:09:18.890Z,99.99
2017-10-19T10:10:31.453Z,99.99
2017-10-19T10:11:44.074Z,99.99
2017-10-19T10:12:56.003Z,99.99
2017-10-19T10:14:08.248Z,99.99
2017-10-19T10:15:20.493Z,99.99
2017-10-19T10:16:32.739Z,99.99
2017-10-19T10:17:45.319Z,99.99
2017-10-19T10:18:57.555Z,99.99
2017-10-19T10:20:09.831Z,99.99
2017-10-19T10:21:21.764Z,99.99
2017-10-19T10:22:34.010Z,99.99
2017-10-19T10:23:46.618Z,99.99
2017-10-19T10:24:58.859Z,99.99
2017-10-19T10:26:10.784Z,99.99
2017-10-19T10:27:23.350Z,99.99
2017-10-19T10:28:35.597Z,99.99
2017-10-19T10:29:47.542Z,99.99
2017-10-19T10:31:00.112Z,99.99
2017-10-19T10:32:12.686Z,99.99
2017-10-19T10:33:24.929Z,99.99
2017-10-19T10:34:37.498Z,99.99
2017-10-19T10:35:50.076Z,99.99
2017-10-19T10:37:02.640Z,99.99
2017-10-19T10:38:14.904Z,99.99
2017-10-19T10:39:27.155Z,99.99
2017-10-19T10:40:39.728Z,99.99
2017-10-19T10:41:52.298Z,99.99
2017-10-19T10:43:04.546Z,99.99
2017-10-19T10:44:17.114Z,99.99
2017-10-19T10:45:29.685Z,99.99
2017-10-19T10:46:42.259Z,99.99
2017-10-19T10:47:54.826Z,99.99
2017-10-19T10:49:07.077Z,99.99
2017-10-19T10:50:19.642Z,99.99
2017-10-19T10:51:32.213Z,99.99
2017-10-19T10:52:44.133Z,99.99
2017-10-19T10:53:56.106Z,99.99
2017-10-19T10:55:08.673Z,99.99
2017-10-19T10:56:20.921Z,99.99
2017-10-19T10:57:32.847Z,99.99
2017-10-19T10:58:45.430Z,99.99
2017-10-19T10:59:57.675Z,99.99
2017-10-19T11:01:09.928Z,99.99
2017-10-19T11:02:22.200Z,99.99
2017-10-19T11:03:34.137Z,99.99
2017-10-19T11:04:46.716Z,99.99
2017-10-19T11:05:59.286Z,99.99
2017-10-19T11:07:11.231Z,99.99
2017-10-19T11:08:23.153Z,99.99
2017-10-19T11:09:35.740Z,99.99
2017-10-19T11:10:48.317Z,99.99
2017-10-19T11:12:00.891Z,99.99
2017-10-19T11:13:13.154Z,99.99
2017-10-19T11:14:25.407Z,99.99
2017-10-19T11:15:37.977Z,99.99
2017-10-19T11:16:50.539Z,99.99
2017-10-19T11:18:02.791Z,99.99
2017-10-19T11:19:15.065Z,99.99
2017-10-19T11:20:27.015Z,99.99
2017-10-19T11:21:39.646Z,99.99
2017-10-19T11:22:51.592Z,99.99
2017-10-19T11:24:04.163Z,99.99
2017-10-19T11:25:16.741Z,99.99
2017-10-19T11:26:28.987Z,99.99
2017-10-19T11:27:41.560Z,99.99
2017-10-19T11:28:54.132Z,99.99
2017-10-19T11:30:06.400Z,99.99
2017-10-19T11:31:18.645Z,99.99
2017-10-19T11:32:30.907Z,99.99
2017-10-19T11:33:43.161Z,99.99
2017-10-19T11:34:55.405Z,99.99
2017-10-19T11:36:07.994Z,99.99
2017-10-19T11:37:20.553Z,99.99
2017-10-19T11:38:33.119Z,99.99
2017-10-19T11:39:45.681Z,99.99
2017-10-19T11:40:57.934Z,99.99
2017-10-19T11:42:10.505Z,99.99
2017-10-19T11:43:22.750Z,99.99
2017-10-19T11:44:35.321Z,99.99
2017-10-19T11:45:47.571Z,99.99
2017-10-19T11:46:59.838Z,99.99
2017-10-19T11:48:12.083Z,99.99
2017-10-19T11:49:24.657Z,99.99
2017-10-19T11:50:36.601Z,99.99
2017-10-19T11:51:48.546Z,99.99
2017-10-19T11:53:01.116Z,99.99
2017-10-19T11:54:13.717Z,99.99
2017-10-19T11:55:25.956Z,99.99
2017-10-19T11:56:38.229Z,99.99
2017-10-19T11:57:50.824Z,99.99
2017-10-19T11:59:03.412Z,99.99
2017-10-19T12:00:15.664Z,99.99
2017-10-19T12:01:27.935Z,99.99
2017-10-19T12:02:40.215Z,99.99
2017-10-19T12:03:52.469Z,99.99
2017-10-19T12:05:04.080Z,99.99
2017-10-19T12:06:16.044Z,99.99
2017-10-19T12:07:28.631Z,99.99
2017-10-19T12:08:40.892Z,99.99
2017-10-19T12:09:53.456Z,99.99
2017-10-19T12:11:06.050Z,99.99
2017-10-19T12:12:18.322Z,99.99
2017-10-19T12:13:30.568Z,99.99
2017-10-19T12:14:43.155Z,99.99
2017-10-19T12:15:55.751Z,99.99
2017-10-19T12:17:07.707Z,99.99
2017-10-19T12:18:19.650Z,99.99
2017-10-19T12:19:32.225Z,99.99
2017-10-19T12:20:44.166Z,99.99
2017-10-19T12:21:56.412Z,99.99
2017-10-19T12:23:08.987Z,99.99
2017-10-19T12:24:20.922Z,99.99
2017-10-19T12:25:33.174Z,99.99
2017-10-19T12:26:45.745Z,99.99
2017-10-19T12:27:58.320Z,99.99
2017-10-19T12:29:10.887Z,99.99
2017-10-19T12:30:23.458Z,99.99
2017-10-19T12:31:35.723Z,99.99
2017-10-19T12:32:47.978Z,99.99
2017-10-19T12:34:00.585Z,99.99
2017-10-19T12:35:12.514Z,99.99
2017-10-19T12:36:24.760Z,99.99
2017-10-19T12:37:37.331Z,99.99
2017-10-19T12:38:49.577Z,99.99
2017-10-19T12:40:01.847Z,99.99
2017-10-19T12:41:14.443Z,99.99
2017-10-19T12:42:26.688Z,99.99
2017-10-19T12:43:39.259Z,99.99
2017-10-19T12:44:51.205Z,99.99
2017-10-19T12:46:03.449Z,99.99
2017-10-19T12:47:15.696Z,99.99
2017-10-19T12:48:28.284Z,99.99
2017-10-19T12:49:40.553Z,99.99
2017-10-19T12:50:53.134Z,99.99
2017-10-19T12:52:05.378Z,99.99
2017-10-19T12:53:17.949Z,99.99
2017-10-19T12:54:30.194Z,99.99
2017-10-19T12:55:42.783Z,99.99
2017-10-19T12:56:54.728Z,99.99
2017-10-19T12:58:06.982Z,99.99
2017-10-19T12:59:19.226Z,99.99
2017-10-19T13:00:31.489Z,99.99
2017-10-19T13:01:44.085Z,99.99
2017-10-19T13:02:56.663Z,99.99
2017-10-19T13:04:08.909Z,99.99
2017-10-19T13:05:21.497Z,99.99
2017-10-19T13:06:33.775Z,99.99
2017-10-19T13:07:46.021Z,99.99
2017-10-19T13:08:58.616Z,99.99
2017-10-19T13:10:11.190Z,99.99
2017-10-19T13:11:23.761Z,99.99
2017-10-19T13:12:35.704Z,99.99
2017-10-19T13:13:47.951Z,99.99
2017-10-19T13:15:00.212Z,99.99
2017-10-19T13:16:12.465Z,99.99
2017-10-19T13:17:25.041Z,99.99
2017-10-19T13:18:37.282Z,99.99
2017-10-19T13:19:49.548Z,99.99
2017-10-19T13:21:01.823Z,99.99
2017-10-19T13:22:14.094Z,99.99
2017-10-19T13:23:26.339Z,99.99
2017-10-19T13:24:38.935Z,99.99
2017-10-19T13:25:51.534Z,99.99
2017-10-19T13:27:03.778Z,99.99
2017-10-19T13:28:16.026Z,99.99
2017-10-19T13:29:28.285Z,99.99
2017-10-19T13:30:40.864Z,99.99
2017-10-19T13:31:53.434Z,99.99
2017-10-19T13:33:05.383Z,99.99
2017-10-19T13:34:17.976Z,99.99
2017-10-19T13:35:29.928Z,99.99
2017-10-19T13:36:42.184Z,99.99
2017-10-19T13:37:54.429Z,99.99
2017-10-19T13:39:06.687Z,99.99
2017-10-19T13:40:18.928Z,99.99
2017-10-19T13:41:31.498Z,99.99
2017-10-19T13:42:43.121Z,99.99
2017-10-19T13:43:55.682Z,99.99
2017-10-19T13:45:07.948Z,99.99
2017-10-19T13:46:20.507Z,99.99
2017-10-19T13:47:33.102Z,99.99
2017-10-19T13:48:45.379Z,99.99
2017-10-19T13:49:57.944Z,99.99
2017-10-19T13:51:10.216Z,99.99
2017-10-19T13:52:22.460Z,99.99
2017-10-19T13:53:34.399Z,99.99
2017-10-19T13:54:46.952Z,99.99
2017-10-19T13:55:58.565Z,99.99
2017-10-19T13:57:11.160Z,99.99
2017-10-19T13:58:23.663Z,99.99
2017-10-19T13:59:35.613Z,99.99
2017-10-19T14:00:47.879Z,99.99
2017-10-19T14:01:59.820Z,99.99
2017-10-19T14:03:12.090Z,99.99
2017-10-19T14:04:23.717Z,99.99
2017-10-19T14:05:35.962Z,99.99
2017-10-19T14:06:48.209Z,99.99
2017-10-19T14:08:00.779Z,99.99
2017-10-19T14:09:13.024Z,99.99
2017-10-19T14:10:25.596Z,99.99
2017-10-19T14:11:38.166Z,99.99
2017-10-19T14:12:50.415Z,99.99
2017-10-19T14:14:02.981Z,99.99
2017-10-19T14:15:14.928Z,99.99
2017-10-19T14:16:27.178Z,99.99
2017-10-19T14:17:39.745Z,99.99
2017-10-19T14:18:51.682Z,99.99
2017-10-19T14:20:04.259Z,99.99
2017-10-19T14:21:16.185Z,99.99
2017-10-19T14:22:28.752Z,99.99
2017-10-19T14:23:41.339Z,99.99
2017-10-19T14:24:53.592Z,99.99
2017-10-19T14:26:05.539Z,99.99
2017-10-19T14:27:17.150Z,99.99
2017-10-19T14:28:29.431Z,99.99
2017-10-19T14:29:42.000Z,99.99
2017-10-19T14:30:54.249Z,99.99
2017-10-19T14:32:06.820Z,99.99
2017-10-19T14:33:19.071Z,99.99
2017-10-19T14:34:31.309Z,99.99
2017-10-19T14:35:43.232Z,99.99
2017-10-19T14:36:55.798Z,99.99
2017-10-19T14:38:07.724Z,99.99
2017-10-19T14:39:20.317Z,99.99
2017-10-19T14:40:32.560Z,99.99
2017-10-19T14:41:44.525Z,99.99
2017-10-19T14:42:57.103Z,99.99
2017-10-19T14:44:09.349Z,99.99
2017-10-19T14:45:21.923Z,99.99
2017-10-19T14:46:33.840Z,99.99
2017-10-19T14:47:45.765Z,99.99
2017-10-19T14:48:58.007Z,99.99
2017-10-19T14:50:10.268Z,99.99
2017-10-19T14:51:22.525Z,99.99
2017-10-19T14:52:34.768Z,99.99
2017-10-19T14:53:46.389Z,99.99
2017-10-19T14:54:58.318Z,99.99
2017-10-19T14:56:10.881Z,99.99
2017-10-19T14:57:23.143Z,99.99
2017-10-19T14:58:35.070Z,99.99
2017-10-19T14:59:47.317Z,99.99
2017-10-19T15:00:59.897Z,99.99
2017-10-19T15:02:11.501Z,99.99
2017-10-19T15:03:23.428Z,99.99
2017-10-19T15:04:35.675Z,99.99
2017-10-19T15:05:47.921Z,99.99
2017-10-19T15:07:00.492Z,99.99
2017-10-19T15:08:12.437Z,99.99
2017-10-19T15:09:25.007Z,99.99
2017-10-19T15:10:37.602Z,99.99
2017-10-19T15:11:49.549Z,99.99
2017-10-19T15:13:01.499Z,99.99
2017-10-19T15:14:14.065Z,99.99
2017-10-19T15:15:26.652Z,99.99
2017-10-19T15:16:38.907Z,99.99
2017-10-19T15:17:51.481Z,99.99
2017-10-19T15:19:03.100Z,99.99
2017-10-19T15:20:15.045Z,99.99
2017-10-19T15:21:26.989Z,99.99
2017-10-19T15:22:39.235Z,99.99
2017-10-19T15:23:51.824Z,99.99
2017-10-19T15:25:03.755Z,99.99
2017-10-19T15:26:16.321Z,99.99
2017-10-19T15:27:28.917Z,99.99
2017-10-19T15:28:41.488Z,99.99
2017-10-19T15:29:54.058Z,99.99
2017-10-19T15:31:06.331Z,99.99
2017-10-19T15:32:18.576Z,99.99
2017-10-19T15:33:30.827Z,99.99
2017-10-19T15:34:43.391Z,99.99